Timeline UpdatesTrip UpdatesNews PostsPvt PostsTravel TipsAdmin PostsConv PostsFollowed PostsChat RequestsBlog PostsPNR Posts

Disclaimer
Search
 
 
Tue Jul 29, 2014 02:01:00 ISTHomeTrainsΣChainsAtlasPNRForumGalleryNewsFAQTripsMembersLoginFeedback
No Recent News for this Train
Other Trains in the News **new
Latest...
.
Sat Apr 26, 2014 (07:41PM)
⇐ Return Journey: Train# 16507

16508/Bangalore -Bhagat Ki Kothi (Jodhpur) Express

Nov 25 2013 (9:01AM)
Change Departure Station:
Change Arrival Station:
Post a Train Travel TipPost a Train Travel Tip **new
Post a Comment/Question/Picture/VideoPost a Comment/Question/Picture/Video
Pantry/Catering
✓ Pantry Car Avbl
✓ Catering Avbl
good
RSA - Rake Sharing
Rake/Coach Composition
Loco-[SLR]-[UR]-[UR]-[A1]-[A2]-[B1]-[B2]-[B3]-[S1]-[S2]-[S3]-[PC]-[S4]-[S5]-[S6]-[S7]-[S8]-[S9]-[S10]-[S11]-[S12][UR]-[SLR]
Loco
Hubli shed WDP-4
News    PNR    Forum    Time-Table    Availability    Fare Chart    Map    Arr/Dep History    Trips    Gallery    ΣChains    X/O    Timeline    
Travel Time: 11h 55m    13 halts    Distance: 630 km    Avg Speed: 52 km/hr
Type: Mail/Express
Zone: SWR/South Western
Departs @ 18:50 (Avg 5m late)
Platform# 1
  T T  
Pune Junction/PUNE 
Arrives @ 06:45 +1 night (Avg 36m late)
Platform# 6
   W F 
Ahmedabad Junction/ADI 

13 halts. 125 intermediate Stations between Pune Junction and Ahmedabad Junction

Show ALL intermediate Stations  Show Old Time-Table

#CodeStation NameX/OArrivesAvgDepartsAvgHaltPFDay#KmSpeedElevZoneAddress
1SBCBangalore City Junction (10)  -21:55+281-1028.734903mSWRBengaluru-560023, Karnataka
2YPRYesvantpur Junction (6)22:05+622:07+72m31-1023.169919mSWRBengaluru 560022, Karnataka
3TKTumkur (3)  23:03+1023:05+112m11-959.171823mSWRTumkur, Karnataka
4TTRTiptur (4)  00:05+1400:06+181m22-888.139860mSWRTiptur, Karnataka
5ASKArsikere Junction (3)X  00:45+1100:50+145m--2-862.656816mSWRArsikere, Karnataka
6RRBBirur Junction (3)X  01:38+1001:40+112m12-817.664802mSWRBirur, Karnataka
7DVGDavangere (2)  03:27+3103:30+313m--2-702.643598mSWRDavanagere, Karnataka
8HRRHarihar (3)  03:48+3103:50+312m--2-689.858553mSWRHarihar, Karnataka
9RNRRanibennur (3)X  04:14+3304:15+331m--2-666.567583mSWRRanebennur, Karnataka
10HVRHaveri (3)  04:44+3704:45+371m--2-633.945558mSWRHaveri, Karnataka
11UBLHubli Junction (5)  06:25+1306:35+2310m12-558.850640mSWRHubli - 580020, Karnataka
12DWRDharwad (4)  06:59+2707:00+271m12-538.851737mSWRDharwad 580001, Karnataka
13LDLonda Junction (3)  08:23+2208:25+232m22-468.344643mSWRLonda, Karnataka
14BGMBelgaum (3)  09:35+2409:40+275m12-417.050752mSWRBelgaum 590001, Karnataka
15GPBGhatprabha (2)  10:49+1510:50+141m12-359.143621mSWRGhatprabha, Karnataka
16MRJMiraj Junction (6)  12:40+512:45+125m12-279.637554mCRMiraj 416410, Maharashtra
17SLISangli (3)  12:57+1413:00+143m12-272.369559mCRSangli, Maharashtra
18KRDKarad (3)  13:59+1914:00+221m12-204.459597mCRDist- Satara., Maharashtra
19STRSatara (3)  15:00+1815:03+193m22-145.740637mCRSatara, Maharashtra
20PUNE»Pune Junction (6)»  18:40+218:50+510m120.055556mCRPune 411001, Maharashtra
21LNLLonavala (3)  19:59+120:00+41m2263.635623mCRLonavala 410401, Maharashtra
22KJTKarjat Junction (4)  20:49+1020:50+121m2292.35657mCRKarjat, Maharashtra
23KYNKalyan Junction (8)X  21:40+1121:45+85m62139.14510mCRKalyan 421301, Maharashtra
24BIRDBhiwandi Road (4)  22:09+1422:10+161m--2157.14126mCRBhiwandi, Maharashtra
25BSRVasai Road (7)  22:50-22:55-5m62184.4647mWRThane-401202, Maharashtra
26VAPIVapi (3)X  00:49+1400:50+151m--3305.56327mWRVapi, Gujarat
27BLValsad (3)X  01:15+1701:16+221m23331.74315mWRValsad, Gujarat
28NVSNavsari (3)XO  02:10+1202:11+131m13370.85214mWRNavsari, Gujarat
29STSurat (4)XO  02:45+702:55+610m33400.47919mWRSurat 395001, Gujarat
30BHBharuch Junction (5)X  03:40+1403:41+161m33459.77419mWRBharuch, Gujarat
31BRCVadodara Junction (7)X  04:38+2904:55+2217m23530.26536mWRVadodara 390005, Gujarat
32ANNDAnand Junction (6)XO  05:28+2505:29+251m--3566.06944mWRAnand, Gujarat
33NDNadiad Junction (4)  05:45+1705:46+171m--3584.54637mWRNadiad, Gujarat
34ADI•Ahmedabad Junction (12)•X  06:45+3607:05+4220m63630.03351mWRAhmedabad, Gujarat
35MSHMahesana Junction (6)  09:19+2709:20+271m--3703.06595mWRMehsana, Gujarat
36SIDSiddhpur  09:53+2409:54+261m--3738.632136mWRState Highway 41, Gujarat
37PNUPalanpur Junction (5)X  10:49+710:50+101m--3768.057216mWRPalanpur, Gujarat
38ABRAbu Road (3)X  11:45+3111:55+3410m23820.670264mNWRSirohi Dist, Rajasthan
39JWBJawai BandhX  13:06+3513:07+371m--3903.349292mNWRPali, Rajasthan
40FAFalna (2)  13:27+3113:28+321m--3919.549282mNWRFalna, Rajasthan
41MJMarwar Junction (4)  14:50+414:55+45m13986.081267mNWRMarwar Junction, Rajasthan
42PMYPali Marwar (2)  15:18+1715:19+191m131017.075221mNWRPali, Rajasthan
43LUNILuni Junction (3)X  15:52+1715:55+173m--31058.245180mNWRLuni, Rajasthan
44BGKTBhagat Ki Kothi (3)16:33+8---31086.5-229mNWRJodhpur, Rajasthan
Scroll to Top
Scroll to Bottom